sensor_id;sensor_type;location;lat;lon;timestamp;P1;durP1;ratioP1;P2;durP2;ratioP2
25381;SDS011;16307;42.896;20.874;2023-04-03T00:00:26;5.78;;;1.95;;
25381;SDS011;16307;42.896;20.874;2023-04-03T00:03:12;3.45;;;1.75;;
25381;SDS011;16307;42.896;20.874;2023-04-03T00:05:57;3.42;;;1.80;;
25381;SDS011;16307;42.896;20.874;2023-04-03T00:08:44;3.08;;;2.00;;
25381;SDS011;16307;42.896;20.874;2023-04-03T00:11:30;3.00;;;1.60;;
25381;SDS011;16307;42.896;20.874;2023-04-03T00:14:16;2.10;;;1.35;;
25381;SDS011;16307;42.896;20.874;2023-04-03T00:17:02;4.55;;;1.77;;
25381;SDS011;16307;42.896;20.874;2023-04-03T00:19:48;4.35;;;1.80;;
25381;SDS011;16307;42.896;20.874;2023-04-03T00:22:34;2.88;;;1.58;;
25381;SDS011;16307;42.896;20.874;2023-04-03T00:25:20;2.70;;;1.90;;
25381;SDS011;16307;42.896;20.874;2023-04-03T00:28:06;3.65;;;2.10;;
25381;SDS011;16307;42.896;20.874;2023-04-03T00:30:52;3.70;;;1.90;;
25381;SDS011;16307;42.896;20.874;2023-04-03T00:33:38;3.13;;;1.90;;
25381;SDS011;16307;42.896;20.874;2023-04-03T00:36:24;3.00;;;1.60;;
25381;SDS011;16307;42.896;20.874;2023-04-03T00:39:10;4.25;;;1.88;;
25381;SDS011;16307;42.896;20.874;2023-04-03T00:41:56;4.07;;;2.08;;
25381;SDS011;16307;42.896;20.874;2023-04-03T00:47:31;7.05;;;1.92;;
25381;SDS011;16307;42.896;20.874;2023-04-03T00:50:18;5.22;;;1.88;;
25381;SDS011;16307;42.896;20.874;2023-04-03T00:53:05;6.05;;;2.20;;
25381;SDS011;16307;42.896;20.874;2023-04-03T00:55:52;3.45;;;1.90;;
25381;SDS011;16307;42.896;20.874;2023-04-03T00:58:45;3.28;;;1.85;;
25381;SDS011;16307;42.896;20.874;2023-04-03T01:01:34;3.80;;;1.88;;
25381;SDS011;16307;42.896;20.874;2023-04-03T01:04:31;4.95;;;1.98;;
25381;SDS011;16307;42.896;20.874;2023-04-03T01:07:22;4.40;;;1.92;;
25381;SDS011;16307;42.896;20.874;2023-04-03T01:10:10;6.60;;;2.25;;
25381;SDS011;16307;42.896;20.874;2023-04-03T01:13:00;2.50;;;1.60;;
25381;SDS011;16307;42.896;20.874;2023-04-03T01:15:47;3.47;;;1.67;;
25381;SDS011;16307;42.896;20.874;2023-04-03T01:18:33;2.20;;;1.73;;
25381;SDS011;16307;42.896;20.874;2023-04-03T01:24:31;4.93;;;1.90;;
25381;SDS011;16307;42.896;20.874;2023-04-03T01:27:23;2.85;;;1.60;;
25381;SDS011;16307;42.896;20.874;2023-04-03T01:30:10;2.05;;;1.60;;
25381;SDS011;16307;42.896;20.874;2023-04-03T01:32:56;3.58;;;1.80;;
25381;SDS011;16307;42.896;20.874;2023-04-03T01:35:43;4.82;;;1.70;;
25381;SDS011;16307;42.896;20.874;2023-04-03T01:38:28;3.97;;;2.50;;
25381;SDS011;16307;42.896;20.874;2023-04-03T01:41:14;2.45;;;1.58;;
25381;SDS011;16307;42.896;20.874;2023-04-03T01:44:03;2.42;;;1.63;;
25381;SDS011;16307;42.896;20.874;2023-04-03T01:46:49;3.47;;;2.13;;
25381;SDS011;16307;42.896;20.874;2023-04-03T01:49:35;2.90;;;2.00;;
25381;SDS011;16307;42.896;20.874;2023-04-03T01:52:22;4.10;;;2.22;;
25381;SDS011;16307;42.896;20.874;2023-04-03T01:55:09;3.72;;;1.75;;
25381;SDS011;16307;42.896;20.874;2023-04-03T01:57:57;3.30;;;2.03;;
25381;SDS011;16307;42.896;20.874;2023-04-03T02:00:43;4.03;;;2.03;;
25381;SDS011;16307;42.896;20.874;2023-04-03T02:03:29;4.18;;;1.90;;
25381;SDS011;16307;42.896;20.874;2023-04-03T02:06:15;3.75;;;2.28;;
25381;SDS011;16307;42.896;20.874;2023-04-03T02:09:01;2.17;;;1.55;;
25381;SDS011;16307;42.896;20.874;2023-04-03T02:11:48;3.38;;;1.92;;
25381;SDS011;16307;42.896;20.874;2023-04-03T02:14:34;2.75;;;1.70;;
25381;SDS011;16307;42.896;20.874;2023-04-03T02:17:20;6.82;;;3.38;;
25381;SDS011;16307;42.896;20.874;2023-04-03T02:20:06;7.40;;;3.40;;
25381;SDS011;16307;42.896;20.874;2023-04-03T02:22:53;6.88;;;3.30;;
25381;SDS011;16307;42.896;20.874;2023-04-03T02:25:38;6.28;;;2.70;;
25381;SDS011;16307;42.896;20.874;2023-04-03T02:28:24;4.43;;;2.45;;
25381;SDS011;16307;42.896;20.874;2023-04-03T02:31:10;4.18;;;2.17;;
25381;SDS011;16307;42.896;20.874;2023-04-03T02:33:59;11.82;;;4.40;;
25381;SDS011;16307;42.896;20.874;2023-04-03T02:36:45;11.85;;;5.50;;
25381;SDS011;16307;42.896;20.874;2023-04-03T02:39:32;13.88;;;5.70;;
25381;SDS011;16307;42.896;20.874;2023-04-03T02:42:18;12.75;;;5.68;;
25381;SDS011;16307;42.896;20.874;2023-04-03T02:45:05;9.77;;;5.47;;
25381;SDS011;16307;42.896;20.874;2023-04-03T02:47:51;12.85;;;6.38;;
25381;SDS011;16307;42.896;20.874;2023-04-03T02:50:37;14.30;;;6.05;;
25381;SDS011;16307;42.896;20.874;2023-04-03T02:53:23;14.88;;;6.25;;
25381;SDS011;16307;42.896;20.874;2023-04-03T02:56:10;17.08;;;8.02;;
25381;SDS011;16307;42.896;20.874;2023-04-03T02:58:56;19.92;;;9.00;;
25381;SDS011;16307;42.896;20.874;2023-04-03T03:01:42;20.35;;;8.65;;
25381;SDS011;16307;42.896;20.874;2023-04-03T03:04:29;18.20;;;8.02;;
25381;SDS011;16307;42.896;20.874;2023-04-03T03:07:15;18.38;;;7.85;;
25381;SDS011;16307;42.896;20.874;2023-04-03T03:10:01;297.15;;;97.00;;
25381;SDS011;16307;42.896;20.874;2023-04-03T03:12:47;308.90;;;102.80;;
25381;SDS011;16307;42.896;20.874;2023-04-03T03:15:33;240.18;;;81.95;;
25381;SDS011;16307;42.896;20.874;2023-04-03T03:18:20;232.68;;;79.97;;
25381;SDS011;16307;42.896;20.874;2023-04-03T03:21:08;175.05;;;59.75;;
25381;SDS011;16307;42.896;20.874;2023-04-03T03:23:55;123.65;;;44.35;;
25381;SDS011;16307;42.896;20.874;2023-04-03T03:26:41;75.13;;;27.63;;
25381;SDS011;16307;42.896;20.874;2023-04-03T03:29:27;56.20;;;21.75;;
25381;SDS011;16307;42.896;20.874;2023-04-03T03:32:13;53.05;;;19.77;;
25381;SDS011;16307;42.896;20.874;2023-04-03T03:34:59;41.28;;;17.17;;
25381;SDS011;16307;42.896;20.874;2023-04-03T03:37:45;47.80;;;18.13;;
25381;SDS011;16307;42.896;20.874;2023-04-03T03:40:32;42.10;;;16.15;;
25381;SDS011;16307;42.896;20.874;2023-04-03T03:43:18;39.47;;;15.77;;
25381;SDS011;16307;42.896;20.874;2023-04-03T03:46:05;43.55;;;16.40;;
25381;SDS011;16307;42.896;20.874;2023-04-03T03:48:51;52.20;;;20.70;;
25381;SDS011;16307;42.896;20.874;2023-04-03T03:51:37;81.75;;;32.85;;
25381;SDS011;16307;42.896;20.874;2023-04-03T03:54:24;89.90;;;34.38;;
25381;SDS011;16307;42.896;20.874;2023-04-03T03:57:10;95.82;;;34.47;;
25381;SDS011;16307;42.896;20.874;2023-04-03T03:59:56;96.35;;;38.30;;
25381;SDS011;16307;42.896;20.874;2023-04-03T04:02:43;97.57;;;39.63;;
25381;SDS011;16307;42.896;20.874;2023-04-03T04:05:33;102.53;;;39.40;;
25381;SDS011;16307;42.896;20.874;2023-04-03T04:08:19;106.53;;;40.05;;
25381;SDS011;16307;42.896;20.874;2023-04-03T04:11:05;67.65;;;28.23;;
25381;SDS011;16307;42.896;20.874;2023-04-03T04:13:52;50.10;;;21.73;;
25381;SDS011;16307;42.896;20.874;2023-04-03T04:16:42;34.70;;;17.02;;
25381;SDS011;16307;42.896;20.874;2023-04-03T04:19:35;24.75;;;11.40;;
25381;SDS011;16307;42.896;20.874;2023-04-03T04:22:22;21.55;;;9.45;;
25381;SDS011;16307;42.896;20.874;2023-04-03T04:25:08;19.70;;;9.20;;
25381;SDS011;16307;42.896;20.874;2023-04-03T04:27:56;23.60;;;9.98;;
25381;SDS011;16307;42.896;20.874;2023-04-03T04:30:43;20.02;;;8.52;;
25381;SDS011;16307;42.896;20.874;2023-04-03T04:33:30;17.17;;;8.20;;
25381;SDS011;16307;42.896;20.874;2023-04-03T04:36:18;15.10;;;8.15;;
25381;SDS011;16307;42.896;20.874;2023-04-03T04:39:05;18.55;;;8.40;;
25381;SDS011;16307;42.896;20.874;2023-04-03T04:41:51;15.48;;;7.55;;
25381;SDS011;16307;42.896;20.874;2023-04-03T04:44:37;14.48;;;7.22;;
25381;SDS011;16307;42.896;20.874;2023-04-03T04:47:24;18.73;;;8.13;;
25381;SDS011;16307;42.896;20.874;2023-04-03T04:50:10;11.75;;;6.97;;
25381;SDS011;16307;42.896;20.874;2023-04-03T04:52:57;14.90;;;7.82;;
25381;SDS011;16307;42.896;20.874;2023-04-03T04:55:43;16.35;;;7.38;;
25381;SDS011;16307;42.896;20.874;2023-04-03T04:58:29;18.38;;;8.02;;
25381;SDS011;16307;42.896;20.874;2023-04-03T05:01:17;19.58;;;9.18;;
25381;SDS011;16307;42.896;20.874;2023-04-03T05:04:14;27.38;;;11.00;;
25381;SDS011;16307;42.896;20.874;2023-04-03T05:07:02;25.80;;;12.65;;
25381;SDS011;16307;42.896;20.874;2023-04-03T05:09:49;26.63;;;12.00;;
25381;SDS011;16307;42.896;20.874;2023-04-03T05:12:36;23.83;;;10.70;;
25381;SDS011;16307;42.896;20.874;2023-04-03T05:15:23;23.90;;;10.15;;
25381;SDS011;16307;42.896;20.874;2023-04-03T05:18:09;28.52;;;11.80;;
25381;SDS011;16307;42.896;20.874;2023-04-03T05:20:55;32.05;;;11.90;;
25381;SDS011;16307;42.896;20.874;2023-04-03T05:23:43;23.35;;;11.93;;
25381;SDS011;16307;42.896;20.874;2023-04-03T05:26:30;26.15;;;12.23;;
25381;SDS011;16307;42.896;20.874;2023-04-03T05:29:16;24.50;;;11.20;;
25381;SDS011;16307;42.896;20.874;2023-04-03T05:32:04;22.58;;;11.52;;
25381;SDS011;16307;42.896;20.874;2023-04-03T05:34:50;26.13;;;12.15;;
25381;SDS011;16307;42.896;20.874;2023-04-03T05:37:37;24.35;;;12.38;;
25381;SDS011;16307;42.896;20.874;2023-04-03T05:40:23;26.35;;;12.82;;
25381;SDS011;16307;42.896;20.874;2023-04-03T05:43:12;25.85;;;12.95;;
25381;SDS011;16307;42.896;20.874;2023-04-03T05:46:00;28.95;;;13.20;;
25381;SDS011;16307;42.896;20.874;2023-04-03T05:48:47;31.23;;;13.52;;
25381;SDS011;16307;42.896;20.874;2023-04-03T05:51:37;29.58;;;14.93;;
25381;SDS011;16307;42.896;20.874;2023-04-03T05:54:35;34.72;;;13.13;;
25381;SDS011;16307;42.896;20.874;2023-04-03T06:00:15;138.18;;;17.15;;
25381;SDS011;16307;42.896;20.874;2023-04-03T06:03:07;82.13;;;13.25;;
25381;SDS011;16307;42.896;20.874;2023-04-03T06:05:53;128.93;;;12.77;;
25381;SDS011;16307;42.896;20.874;2023-04-03T06:08:39;25.83;;;8.63;;
25381;SDS011;16307;42.896;20.874;2023-04-03T06:11:25;20.98;;;8.98;;
25381;SDS011;16307;42.896;20.874;2023-04-03T06:14:12;33.67;;;8.32;;
25381;SDS011;16307;42.896;20.874;2023-04-03T06:16:58;53.78;;;9.48;;
25381;SDS011;16307;42.896;20.874;2023-04-03T06:19:45;16.20;;;7.43;;
25381;SDS011;16307;42.896;20.874;2023-04-03T06:22:32;16.40;;;7.60;;
25381;SDS011;16307;42.896;20.874;2023-04-03T06:25:19;14.73;;;7.03;;
25381;SDS011;16307;42.896;20.874;2023-04-03T06:28:05;8.63;;;5.47;;
25381;SDS011;16307;42.896;20.874;2023-04-03T06:30:54;7.57;;;4.07;;
25381;SDS011;16307;42.896;20.874;2023-04-03T06:33:40;5.00;;;3.85;;
25381;SDS011;16307;42.896;20.874;2023-04-03T06:36:26;14.32;;;4.05;;
25381;SDS011;16307;42.896;20.874;2023-04-03T10:02:03;72.68;;;8.65;;
25381;SDS011;16307;42.896;20.874;2023-04-03T10:13:57;3.25;;;2.50;;
25381;SDS011;16307;42.896;20.874;2023-04-03T10:16:53;3.80;;;2.17;;
25381;SDS011;16307;42.896;20.874;2023-04-03T10:20:08;4.18;;;2.28;;
25381;SDS011;16307;42.896;20.874;2023-04-03T10:35:18;7.45;;;2.30;;
25381;SDS011;16307;42.896;20.874;2023-04-03T10:47:53;2.75;;;2.15;;
25381;SDS011;16307;42.896;20.874;2023-04-03T10:51:15;2.97;;;2.17;;
25381;SDS011;16307;42.896;20.874;2023-04-03T10:54:07;5.10;;;2.53;;
25381;SDS011;16307;42.896;20.874;2023-04-03T10:56:58;3.77;;;2.60;;
25381;SDS011;16307;42.896;20.874;2023-04-03T10:59:58;5.47;;;2.67;;
25381;SDS011;16307;42.896;20.874;2023-04-03T11:02:52;4.43;;;2.95;;
25381;SDS011;16307;42.896;20.874;2023-04-03T11:05:45;3.70;;;3.05;;
25381;SDS011;16307;42.896;20.874;2023-04-03T11:08:44;4.10;;;2.70;;
25381;SDS011;16307;42.896;20.874;2023-04-03T11:11:34;4.00;;;3.08;;
25381;SDS011;16307;42.896;20.874;2023-04-03T11:14:24;6.93;;;3.80;;
25381;SDS011;16307;42.896;20.874;2023-04-03T11:20:49;3.80;;;3.35;;
25381;SDS011;16307;42.896;20.874;2023-04-03T11:26:27;3.70;;;3.15;;
25381;SDS011;16307;42.896;20.874;2023-04-03T11:29:18;4.65;;;3.42;;
25381;SDS011;16307;42.896;20.874;2023-04-03T11:35:15;5.43;;;2.97;;
25381;SDS011;16307;42.896;20.874;2023-04-03T11:38:03;4.22;;;2.92;;
25381;SDS011;16307;42.896;20.874;2023-04-03T11:40:52;4.20;;;3.20;;
25381;SDS011;16307;42.896;20.874;2023-04-03T11:43:55;8.48;;;3.10;;
25381;SDS011;16307;42.896;20.874;2023-04-03T11:46:53;11.52;;;3.72;;
25381;SDS011;16307;42.896;20.874;2023-04-03T11:49:56;7.43;;;3.10;;
25381;SDS011;16307;42.896;20.874;2023-04-03T11:58:34;9.50;;;4.32;;
25381;SDS011;16307;42.896;20.874;2023-04-03T12:01:42;5.47;;;3.28;;
25381;SDS011;16307;42.896;20.874;2023-04-03T12:04:31;4.43;;;3.40;;
25381;SDS011;16307;42.896;20.874;2023-04-03T12:07:18;8.68;;;3.60;;
25381;SDS011;16307;42.896;20.874;2023-04-03T12:10:14;6.35;;;3.40;;
25381;SDS011;16307;42.896;20.874;2023-04-03T12:13:16;5.00;;;2.88;;
25381;SDS011;16307;42.896;20.874;2023-04-03T12:16:03;5.65;;;3.22;;
25381;SDS011;16307;42.896;20.874;2023-04-03T12:24:36;5.28;;;3.47;;
25381;SDS011;16307;42.896;20.874;2023-04-03T12:30:13;7.75;;;3.35;;
25381;SDS011;16307;42.896;20.874;2023-04-03T12:33:20;5.93;;;3.58;;
25381;SDS011;16307;42.896;20.874;2023-04-03T12:36:15;5.93;;;3.78;;
25381;SDS011;16307;42.896;20.874;2023-04-03T12:39:12;6.38;;;3.58;;
25381;SDS011;16307;42.896;20.874;2023-04-03T12:45:24;7.72;;;3.72;;
25381;SDS011;16307;42.896;20.874;2023-04-03T12:48:15;6.57;;;4.30;;
25381;SDS011;16307;42.896;20.874;2023-04-03T12:51:03;5.03;;;3.80;;
25381;SDS011;16307;42.896;20.874;2023-04-03T12:53:50;8.68;;;3.95;;
25381;SDS011;16307;42.896;20.874;2023-04-03T12:56:37;8.88;;;4.28;;
25381;SDS011;16307;42.896;20.874;2023-04-03T12:59:24;4.38;;;3.60;;
25381;SDS011;16307;42.896;20.874;2023-04-03T13:02:25;7.50;;;4.70;;
25381;SDS011;16307;42.896;20.874;2023-04-03T13:05:16;9.07;;;5.10;;
25381;SDS011;16307;42.896;20.874;2023-04-03T13:08:09;7.22;;;4.68;;
25381;SDS011;16307;42.896;20.874;2023-04-03T13:11:05;6.53;;;4.72;;
25381;SDS011;16307;42.896;20.874;2023-04-03T13:13:57;9.13;;;4.75;;
25381;SDS011;16307;42.896;20.874;2023-04-03T13:19:44;6.57;;;5.13;;
25381;SDS011;16307;42.896;20.874;2023-04-03T13:22:38;9.85;;;5.18;;
25381;SDS011;16307;42.896;20.874;2023-04-03T13:25:30;7.07;;;5.40;;
25381;SDS011;16307;42.896;20.874;2023-04-03T13:28:22;7.70;;;5.72;;
25381;SDS011;16307;42.896;20.874;2023-04-03T13:34:04;7.38;;;5.40;;
25381;SDS011;16307;42.896;20.874;2023-04-03T13:36:57;7.95;;;5.38;;
25381;SDS011;16307;42.896;20.874;2023-04-03T13:39:45;12.82;;;5.60;;
25381;SDS011;16307;42.896;20.874;2023-04-03T13:43:06;8.90;;;6.03;;
25381;SDS011;16307;42.896;20.874;2023-04-03T13:51:42;10.38;;;5.57;;
25381;SDS011;16307;42.896;20.874;2023-04-03T13:54:40;11.02;;;6.32;;
25381;SDS011;16307;42.896;20.874;2023-04-03T13:57:25;8.60;;;5.80;;
25381;SDS011;16307;42.896;20.874;2023-04-03T14:06:27;10.53;;;6.17;;
25381;SDS011;16307;42.896;20.874;2023-04-03T14:09:15;9.23;;;6.30;;
25381;SDS011;16307;42.896;20.874;2023-04-03T14:12:06;8.18;;;5.30;;
25381;SDS011;16307;42.896;20.874;2023-04-03T14:15:16;7.88;;;5.63;;
25381;SDS011;16307;42.896;20.874;2023-04-03T14:18:04;20.38;;;8.60;;
25381;SDS011;16307;42.896;20.874;2023-04-03T14:20:52;19.45;;;7.97;;
25381;SDS011;16307;42.896;20.874;2023-04-03T14:23:38;8.05;;;5.93;;
25381;SDS011;16307;42.896;20.874;2023-04-03T14:26:24;9.60;;;6.07;;
25381;SDS011;16307;42.896;20.874;2023-04-03T14:29:12;8.77;;;6.00;;
25381;SDS011;16307;42.896;20.874;2023-04-03T14:31:59;13.73;;;6.47;;
25381;SDS011;16307;42.896;20.874;2023-04-03T14:34:59;10.02;;;6.47;;
25381;SDS011;16307;42.896;20.874;2023-04-03T14:37:46;9.50;;;6.32;;
25381;SDS011;16307;42.896;20.874;2023-04-03T14:40:33;9.27;;;5.15;;
25381;SDS011;16307;42.896;20.874;2023-04-03T14:43:20;10.00;;;6.47;;
25381;SDS011;16307;42.896;20.874;2023-04-03T14:46:11;8.55;;;6.13;;
25381;SDS011;16307;42.896;20.874;2023-04-03T14:49:03;9.00;;;6.05;;
25381;SDS011;16307;42.896;20.874;2023-04-03T14:51:55;10.52;;;6.22;;
25381;SDS011;16307;42.896;20.874;2023-04-03T14:54:42;10.23;;;6.10;;
25381;SDS011;16307;42.896;20.874;2023-04-03T14:57:29;8.40;;;5.82;;
25381;SDS011;16307;42.896;20.874;2023-04-03T15:00:20;8.00;;;5.55;;
25381;SDS011;16307;42.896;20.874;2023-04-03T15:03:09;9.50;;;6.18;;
25381;SDS011;16307;42.896;20.874;2023-04-03T15:08:45;11.60;;;5.88;;
25381;SDS011;16307;42.896;20.874;2023-04-03T15:11:32;9.35;;;6.40;;
25381;SDS011;16307;42.896;20.874;2023-04-03T15:14:18;7.72;;;5.75;;
25381;SDS011;16307;42.896;20.874;2023-04-03T15:20:11;8.15;;;5.72;;
25381;SDS011;16307;42.896;20.874;2023-04-03T15:23:00;7.57;;;5.43;;
25381;SDS011;16307;42.896;20.874;2023-04-03T15:25:47;9.07;;;5.18;;
25381;SDS011;16307;42.896;20.874;2023-04-03T15:28:35;9.55;;;6.05;;
25381;SDS011;16307;42.896;20.874;2023-04-03T15:31:22;8.48;;;5.55;;
25381;SDS011;16307;42.896;20.874;2023-04-03T15:34:08;9.93;;;6.60;;
